sensor_id;sensor_type;location;lat;lon;timestamp;temperature;humidity
83808;SHT31;73824;40.292;17.998;2024-01-15T00:01:43;8.61;83.29
83808;SHT31;73824;40.292;17.998;2024-01-15T00:04:09;8.66;83.15
83808;SHT31;73824;40.292;17.998;2024-01-15T00:06:35;8.63;83.13
83808;SHT31;73824;40.292;17.998;2024-01-15T00:09:00;8.69;83.13
83808;SHT31;73824;40.292;17.998;2024-01-15T00:11:25;9.00;82.35
83808;SHT31;73824;40.292;17.998;2024-01-15T00:13:51;8.92;82.45
83808;SHT31;73824;40.292;17.998;2024-01-15T00:16:17;8.97;82.62
83808;SHT31;73824;40.292;17.998;2024-01-15T00:18:42;9.40;80.90
83808;SHT31;73824;40.292;17.998;2024-01-15T00:21:08;9.56;79.85
83808;SHT31;73824;40.292;17.998;2024-01-15T00:23:33;9.46;80.15
83808;SHT31;73824;40.292;17.998;2024-01-15T00:25:59;9.35;80.55
83808;SHT31;73824;40.292;17.998;2024-01-15T00:28:24;9.45;80.56
83808;SHT31;73824;40.292;17.998;2024-01-15T00:30:50;9.53;80.72
83808;SHT31;73824;40.292;17.998;2024-01-15T00:33:15;9.49;80.74
83808;SHT31;73824;40.292;17.998;2024-01-15T00:35:41;9.50;80.65
83808;SHT31;73824;40.292;17.998;2024-01-15T00:38:06;9.47;81.00
83808;SHT31;73824;40.292;17.998;2024-01-15T00:40:32;9.40;81.29
83808;SHT31;73824;40.292;17.998;2024-01-15T00:42:58;9.31;81.65
83808;SHT31;73824;40.292;17.998;2024-01-15T00:45:23;9.38;81.68
83808;SHT31;73824;40.292;17.998;2024-01-15T00:47:49;9.45;81.21
83808;SHT31;73824;40.292;17.998;2024-01-15T00:50:14;9.40;81.65
83808;SHT31;73824;40.292;17.998;2024-01-15T00:52:40;9.40;81.83
83808;SHT31;73824;40.292;17.998;2024-01-15T00:55:06;9.32;82.09
83808;SHT31;73824;40.292;17.998;2024-01-15T00:57:31;9.34;82.33
83808;SHT31;73824;40.292;17.998;2024-01-15T00:59:58;9.31;82.71
83808;SHT31;73824;40.292;17.998;2024-01-15T01:02:24;9.42;82.85
83808;SHT31;73824;40.292;17.998;2024-01-15T01:04:49;9.57;82.46
83808;SHT31;73824;40.292;17.998;2024-01-15T01:07:15;9.70;81.96
83808;SHT31;73824;40.292;17.998;2024-01-15T01:09:40;9.65;82.19
83808;SHT31;73824;40.292;17.998;2024-01-15T01:12:06;9.72;82.21
83808;SHT31;73824;40.292;17.998;2024-01-15T01:14:32;9.60;82.32
83808;SHT31;73824;40.292;17.998;2024-01-15T01:16:57;9.69;82.39
83808;SHT31;73824;40.292;17.998;2024-01-15T01:19:23;9.59;82.41
83808;SHT31;73824;40.292;17.998;2024-01-15T01:21:50;9.66;82.77
83808;SHT31;73824;40.292;17.998;2024-01-15T01:24:16;9.66;82.85
83808;SHT31;73824;40.292;17.998;2024-01-15T01:26:42;9.63;83.29
83808;SHT31;73824;40.292;17.998;2024-01-15T01:29:07;9.70;83.34
83808;SHT31;73824;40.292;17.998;2024-01-15T01:31:33;9.57;83.71
83808;SHT31;73824;40.292;17.998;2024-01-15T01:33:58;9.47;84.08
83808;SHT31;73824;40.292;17.998;2024-01-15T01:36:24;9.49;84.61
83808;SHT31;73824;40.292;17.998;2024-01-15T01:38:49;9.53;84.46
83808;SHT31;73824;40.292;17.998;2024-01-15T01:41:15;9.42;84.91
83808;SHT31;73824;40.292;17.998;2024-01-15T01:43:40;9.36;85.28
83808;SHT31;73824;40.292;17.998;2024-01-15T01:46:06;9.32;85.67
83808;SHT31;73824;40.292;17.998;2024-01-15T01:48:32;9.38;85.98
83808;SHT31;73824;40.292;17.998;2024-01-15T01:51:00;9.43;86.03
83808;SHT31;73824;40.292;17.998;2024-01-15T01:53:27;9.38;86.13
83808;SHT31;73824;40.292;17.998;2024-01-15T01:55:54;9.39;86.30
83808;SHT31;73824;40.292;17.998;2024-01-15T01:58:21;9.36;86.57
83808;SHT31;73824;40.292;17.998;2024-01-15T02:00:47;9.47;86.74
83808;SHT31;73824;40.292;17.998;2024-01-15T02:03:13;9.50;86.33
83808;SHT31;73824;40.292;17.998;2024-01-15T02:05:39;9.47;86.59
83808;SHT31;73824;40.292;17.998;2024-01-15T02:08:05;9.49;86.77
83808;SHT31;73824;40.292;17.998;2024-01-15T02:10:31;9.56;86.82
83808;SHT31;73824;40.292;17.998;2024-01-15T02:12:57;9.53;87.19
83808;SHT31;73824;40.292;17.998;2024-01-15T02:15:23;9.57;87.21
83808;SHT31;73824;40.292;17.998;2024-01-15T02:18:05;9.52;87.46
83808;SHT31;73824;40.292;17.998;2024-01-15T02:20:32;9.56;87.56
83808;SHT31;73824;40.292;17.998;2024-01-15T02:25:32;9.63;88.00
83808;SHT31;73824;40.292;17.998;2024-01-15T02:27:58;9.65;88.06
83808;SHT31;73824;40.292;17.998;2024-01-15T02:30:25;9.70;88.17
83808;SHT31;73824;40.292;17.998;2024-01-15T02:32:50;9.79;88.22
83808;SHT31;73824;40.292;17.998;2024-01-15T02:35:16;9.73;88.19
83808;SHT31;73824;40.292;17.998;2024-01-15T02:37:43;9.76;88.39
83808;SHT31;73824;40.292;17.998;2024-01-15T02:40:08;9.83;88.69
83808;SHT31;73824;40.292;17.998;2024-01-15T02:42:34;10.03;88.90
83808;SHT31;73824;40.292;17.998;2024-01-15T02:44:59;10.05;88.93
83808;SHT31;73824;40.292;17.998;2024-01-15T02:47:25;10.15;89.22
83808;SHT31;73824;40.292;17.998;2024-01-15T02:49:50;10.24;89.12
83808;SHT31;73824;40.292;17.998;2024-01-15T02:52:16;10.20;89.01
83808;SHT31;73824;40.292;17.998;2024-01-15T02:54:42;10.17;89.07
83808;SHT31;73824;40.292;17.998;2024-01-15T02:57:07;10.18;89.10
83808;SHT31;73824;40.292;17.998;2024-01-15T02:59:32;10.11;89.23
83808;SHT31;73824;40.292;17.998;2024-01-15T03:01:58;10.10;89.34
83808;SHT31;73824;40.292;17.998;2024-01-15T03:04:23;10.14;89.52
83808;SHT31;73824;40.292;17.998;2024-01-15T03:06:49;10.08;89.61
83808;SHT31;73824;40.292;17.998;2024-01-15T03:09:14;10.11;89.72
83808;SHT31;73824;40.292;17.998;2024-01-15T03:11:40;10.08;89.91
83808;SHT31;73824;40.292;17.998;2024-01-15T03:14:06;10.11;90.11
83808;SHT31;73824;40.292;17.998;2024-01-15T03:16:31;10.20;89.95
83808;SHT31;73824;40.292;17.998;2024-01-15T03:18:57;10.22;89.77
83808;SHT31;73824;40.292;17.998;2024-01-15T03:21:22;10.17;89.91
83808;SHT31;73824;40.292;17.998;2024-01-15T03:23:48;10.18;90.09
83808;SHT31;73824;40.292;17.998;2024-01-15T03:26:13;10.32;90.26
83808;SHT31;73824;40.292;17.998;2024-01-15T03:28:39;10.32;90.30
83808;SHT31;73824;40.292;17.998;2024-01-15T03:31:04;10.28;90.31
83808;SHT31;73824;40.292;17.998;2024-01-15T03:33:30;10.31;90.48
83808;SHT31;73824;40.292;17.998;2024-01-15T03:35:55;10.28;90.45
83808;SHT31;73824;40.292;17.998;2024-01-15T03:38:22;10.31;90.50
83808;SHT31;73824;40.292;17.998;2024-01-15T03:40:48;10.41;90.26
83808;SHT31;73824;40.292;17.998;2024-01-15T03:43:13;10.48;90.20
83808;SHT31;73824;40.292;17.998;2024-01-15T03:45:39;10.49;89.96
83808;SHT31;73824;40.292;17.998;2024-01-15T03:48:05;10.48;89.84
83808;SHT31;73824;40.292;17.998;2024-01-15T03:50:30;10.46;89.75
83808;SHT31;73824;40.292;17.998;2024-01-15T03:52:56;10.45;89.73
83808;SHT31;73824;40.292;17.998;2024-01-15T03:55:21;10.40;89.70
83808;SHT31;73824;40.292;17.998;2024-01-15T03:57:47;10.38;89.75
83808;SHT31;73824;40.292;17.998;2024-01-15T04:00:14;10.37;89.94
83808;SHT31;73824;40.292;17.998;2024-01-15T04:02:40;10.34;90.08
83808;SHT31;73824;40.292;17.998;2024-01-15T04:05:05;10.32;90.15
83808;SHT31;73824;40.292;17.998;2024-01-15T04:07:31;10.40;90.15
83808;SHT31;73824;40.292;17.998;2024-01-15T04:09:56;10.32;89.99
83808;SHT31;73824;40.292;17.998;2024-01-15T04:12:22;10.28;90.21
83808;SHT31;73824;40.292;17.998;2024-01-15T04:14:47;10.24;90.38
83808;SHT31;73824;40.292;17.998;2024-01-15T04:17:13;10.24;90.54
83808;SHT31;73824;40.292;17.998;2024-01-15T04:19:38;10.18;90.66
83808;SHT31;73824;40.292;17.998;2024-01-15T04:22:03;10.18;90.86
83808;SHT31;73824;40.292;17.998;2024-01-15T04:24:31;10.20;90.98
83808;SHT31;73824;40.292;17.998;2024-01-15T04:26:57;10.22;91.08
83808;SHT31;73824;40.292;17.998;2024-01-15T04:29:23;10.28;91.11
83808;SHT31;73824;40.292;17.998;2024-01-15T04:31:48;10.31;91.11
83808;SHT31;73824;40.292;17.998;2024-01-15T04:34:14;10.38;91.03
83808;SHT31;73824;40.292;17.998;2024-01-15T04:36:40;10.41;90.97
83808;SHT31;73824;40.292;17.998;2024-01-15T04:39:06;10.52;90.85
83808;SHT31;73824;40.292;17.998;2024-01-15T04:41:32;10.61;90.53
83808;SHT31;73824;40.292;17.998;2024-01-15T04:43:58;10.70;90.13
83808;SHT31;73824;40.292;17.998;2024-01-15T04:46:25;10.89;89.31
83808;SHT31;73824;40.292;17.998;2024-01-15T04:48:51;10.95;88.52
83808;SHT31;73824;40.292;17.998;2024-01-15T04:51:16;11.00;87.88
83808;SHT31;73824;40.292;17.998;2024-01-15T04:53:42;10.99;87.78
83808;SHT31;73824;40.292;17.998;2024-01-15T04:56:07;10.90;87.83
83808;SHT31;73824;40.292;17.998;2024-01-15T04:58:33;10.79;88.07
83808;SHT31;73824;40.292;17.998;2024-01-15T05:00:59;10.63;88.60
83808;SHT31;73824;40.292;17.998;2024-01-15T05:03:24;10.58;88.98
83808;SHT31;73824;40.292;17.998;2024-01-15T05:05:49;10.69;89.18
83808;SHT31;73824;40.292;17.998;2024-01-15T05:08:15;10.63;89.29
83808;SHT31;73824;40.292;17.998;2024-01-15T05:10:40;10.61;89.36
83808;SHT31;73824;40.292;17.998;2024-01-15T05:13:06;10.61;89.74
83808;SHT31;73824;40.292;17.998;2024-01-15T05:15:31;10.72;89.75
83808;SHT31;73824;40.292;17.998;2024-01-15T05:17:57;10.80;89.68
83808;SHT31;73824;40.292;17.998;2024-01-15T05:20:22;10.83;89.77
83808;SHT31;73824;40.292;17.998;2024-01-15T05:22:48;10.86;89.91
83808;SHT31;73824;40.292;17.998;2024-01-15T05:25:13;11.07;90.10
83808;SHT31;73824;40.292;17.998;2024-01-15T05:27:39;11.21;89.85
83808;SHT31;73824;40.292;17.998;2024-01-15T05:30:05;11.28;89.56
83808;SHT31;73824;40.292;17.998;2024-01-15T05:32:32;11.35;89.21
83808;SHT31;73824;40.292;17.998;2024-01-15T05:34:57;11.38;89.08
83808;SHT31;73824;40.292;17.998;2024-01-15T05:37:23;11.35;89.56
83808;SHT31;73824;40.292;17.998;2024-01-15T05:39:48;11.37;89.51
83808;SHT31;73824;40.292;17.998;2024-01-15T05:42:13;11.37;89.43
83808;SHT31;73824;40.292;17.998;2024-01-15T05:44:39;11.39;89.61
83808;SHT31;73824;40.292;17.998;2024-01-15T05:47:04;11.35;89.59
83808;SHT31;73824;40.292;17.998;2024-01-15T05:49:30;11.39;89.43
83808;SHT31;73824;40.292;17.998;2024-01-15T05:51:55;11.34;89.74
83808;SHT31;73824;40.292;17.998;2024-01-15T05:54:21;11.39;89.80
83808;SHT31;73824;40.292;17.998;2024-01-15T05:56:46;11.32;89.94
83808;SHT31;73824;40.292;17.998;2024-01-15T05:59:12;11.32;89.85
83808;SHT31;73824;40.292;17.998;2024-01-15T06:01:38;11.28;89.97
83808;SHT31;73824;40.292;17.998;2024-01-15T06:04:03;11.28;90.20
83808;SHT31;73824;40.292;17.998;2024-01-15T06:06:29;11.26;90.30
83808;SHT31;73824;40.292;17.998;2024-01-15T06:08:54;11.20;90.40
83808;SHT31;73824;40.292;17.998;2024-01-15T06:11:20;11.20;90.42
83808;SHT31;73824;40.292;17.998;2024-01-15T06:13:45;11.26;90.21
83808;SHT31;73824;40.292;17.998;2024-01-15T06:16:17;11.28;90.20
83808;SHT31;73824;40.292;17.998;2024-01-15T06:18:44;11.23;90.23
83808;SHT31;73824;40.292;17.998;2024-01-15T06:21:09;11.32;90.11
83808;SHT31;73824;40.292;17.998;2024-01-15T06:23:38;11.28;90.10
83808;SHT31;73824;40.292;17.998;2024-01-15T06:26:04;11.31;90.10
83808;SHT31;73824;40.292;17.998;2024-01-15T06:28:29;11.39;89.89
83808;SHT31;73824;40.292;17.998;2024-01-15T06:30:55;11.38;89.73
83808;SHT31;73824;40.292;17.998;2024-01-15T06:33:20;11.42;89.58
83808;SHT31;73824;40.292;17.998;2024-01-15T06:35:46;11.57;89.05
83808;SHT31;73824;40.292;17.998;2024-01-15T06:38:11;11.61;88.75
83808;SHT31;73824;40.292;17.998;2024-01-15T06:40:36;11.58;88.56
83808;SHT31;73824;40.292;17.998;2024-01-15T06:43:02;11.61;88.61
83808;SHT31;73824;40.292;17.998;2024-01-15T06:45:27;11.54;88.54
83808;SHT31;73824;40.292;17.998;2024-01-15T06:47:53;11.66;88.14
83808;SHT31;73824;40.292;17.998;2024-01-15T06:50:19;11.69;87.77
83808;SHT31;73824;40.292;17.998;2024-01-15T06:52:44;11.74;87.39
83808;SHT31;73824;40.292;17.998;2024-01-15T06:55:10;11.75;87.41
83808;SHT31;73824;40.292;17.998;2024-01-15T06:57:35;11.83;87.23
83808;SHT31;73824;40.292;17.998;2024-01-15T07:00:01;11.90;86.86
83808;SHT31;73824;40.292;17.998;2024-01-15T07:02:26;11.95;86.58
83808;SHT31;73824;40.292;17.998;2024-01-15T07:04:52;12.02;86.33
83808;SHT31;73824;40.292;17.998;2024-01-15T07:07:17;12.12;85.65
83808;SHT31;73824;40.292;17.998;2024-01-15T07:09:43;12.16;84.73
83808;SHT31;73824;40.292;17.998;2024-01-15T07:12:08;12.23;83.90
83808;SHT31;73824;40.292;17.998;2024-01-15T07:14:33;12.26;83.40
83808;SHT31;73824;40.292;17.998;2024-01-15T07:16:59;12.30;82.98
83808;SHT31;73824;40.292;17.998;2024-01-15T07:19:25;12.33;82.48
83808;SHT31;73824;40.292;17.998;2024-01-15T07:21:50;12.37;82.20
83808;SHT31;73824;40.292;17.998;2024-01-15T07:24:16;12.45;81.71
83808;SHT31;73824;40.292;17.998;2024-01-15T07:26:41;12.51;81.59
83808;SHT31;73824;40.292;17.998;2024-01-15T07:29:07;12.44;81.78
83808;SHT31;73824;40.292;17.998;2024-01-15T07:31:33;12.47;81.94
83808;SHT31;73824;40.292;17.998;2024-01-15T07:33:59;12.53;81.62
83808;SHT31;73824;40.292;17.998;2024-01-15T07:36:25;12.54;81.66
83808;SHT31;73824;40.292;17.998;2024-01-15T07:38:50;12.65;81.65
83808;SHT31;73824;40.292;17.998;2024-01-15T07:41:16;12.74;81.64
83808;SHT31;73824;40.292;17.998;2024-01-15T07:43:41;12.82;81.93
83808;SHT31;73824;40.292;17.998;2024-01-15T07:46:07;12.88;81.97
83808;SHT31;73824;40.292;17.998;2024-01-15T07:48:32;12.95;82.08
83808;SHT31;73824;40.292;17.998;2024-01-15T07:50:58;12.92;82.25
83808;SHT31;73824;40.292;17.998;2024-01-15T07:53:24;12.98;81.28
83808;SHT31;73824;40.292;17.998;2024-01-15T07:55:49;13.10;79.90
83808;SHT31;73824;40.292;17.998;2024-01-15T07:58:15;13.19;79.19
83808;SHT31;73824;40.292;17.998;2024-01-15T08:00:40;13.19;79.22
83808;SHT31;73824;40.292;17.998;2024-01-15T08:03:06;13.27;79.31
83808;SHT31;73824;40.292;17.998;2024-01-15T08:05:31;13.32;79.64
83808;SHT31;73824;40.292;17.998;2024-01-15T08:07:57;13.47;79.66
83808;SHT31;73824;40.292;17.998;2024-01-15T08:10:23;13.47;79.77
83808;SHT31;73824;40.292;17.998;2024-01-15T08:12:48;13.53;79.93
83808;SHT31;73824;40.292;17.998;2024-01-15T08:15:14;13.57;79.85
83808;SHT31;73824;40.292;17.998;2024-01-15T08:17:40;13.58;79.63
83808;SHT31;73824;40.292;17.998;2024-01-15T08:20:05;13.61;79.30
83808;SHT31;73824;40.292;17.998;2024-01-15T08:22:31;13.57;79.71
83808;SHT31;73824;40.292;17.998;2024-01-15T08:24:56;13.73;79.65
83808;SHT31;73824;40.292;17.998;2024-01-15T08:27:22;13.77;79.85
83808;SHT31;73824;40.292;17.998;2024-01-15T08:29:47;13.79;80.30
83808;SHT31;73824;40.292;17.998;2024-01-15T08:32:13;13.89;80.44
83808;SHT31;73824;40.292;17.998;2024-01-15T08:34:41;13.85;80.11
83808;SHT31;73824;40.292;17.998;2024-01-15T08:37:07;13.95;79.08
83808;SHT31;73824;40.292;17.998;2024-01-15T08:39:33;14.16;77.94
83808;SHT31;73824;40.292;17.998;2024-01-15T08:41:58;14.37;77.12
83808;SHT31;73824;40.292;17.998;2024-01-15T08:44:24;14.70;75.98
83808;SHT31;73824;40.292;17.998;2024-01-15T08:46:49;15.14;74.35
83808;SHT31;73824;40.292;17.998;2024-01-15T08:49:15;15.22;74.30
83808;SHT31;73824;40.292;17.998;2024-01-15T08:51:40;15.18;74.86
83808;SHT31;73824;40.292;17.998;2024-01-15T08:54:06;15.10;75.61
83808;SHT31;73824;40.292;17.998;2024-01-15T08:56:33;15.02;76.16
83808;SHT31;73824;40.292;17.998;2024-01-15T08:58:59;15.45;75.03
83808;SHT31;73824;40.292;17.998;2024-01-15T09:01:24;15.69;74.75
83808;SHT31;73824;40.292;17.998;2024-01-15T09:03:50;15.85;72.61
83808;SHT31;73824;40.292;17.998;2024-01-15T09:06:19;15.71;71.75
83808;SHT31;73824;40.292;17.998;2024-01-15T09:08:46;15.59;71.61
83808;SHT31;73824;40.292;17.998;2024-01-15T09:11:11;15.41;71.81
83808;SHT31;73824;40.292;17.998;2024-01-15T09:13:37;15.50;71.93
83808;SHT31;73824;40.292;17.998;2024-01-15T09:16:03;15.27;73.13
83808;SHT31;73824;40.292;17.998;2024-01-15T09:18:29;14.98;74.47
83808;SHT31;73824;40.292;17.998;2024-01-15T09:20:55;15.25;74.45
83808;SHT31;73824;40.292;17.998;2024-01-15T09:23:21;15.43;73.98
83808;SHT31;73824;40.292;17.998;2024-01-15T09:25:46;15.27;73.15
83808;SHT31;73824;40.292;17.998;2024-01-15T09:28:13;15.52;72.39
83808;SHT31;73824;40.292;17.998;2024-01-15T09:30:39;15.65;72.32
83808;SHT31;73824;40.292;17.998;2024-01-15T09:33:04;15.49;73.02
83808;SHT31;73824;40.292;17.998;2024-01-15T09:35:30;15.50;72.98
83808;SHT31;73824;40.292;17.998;2024-01-15T09:37:56;15.98;72.47
83808;SHT31;73824;40.292;17.998;2024-01-15T09:40:21;16.17;71.38
83808;SHT31;73824;40.292;17.998;2024-01-15T09:42:47;16.13;72.30
83808;SHT31;73824;40.292;17.998;2024-01-15T09:45:13;16.41;71.09
83808;SHT31;73824;40.292;17.998;2024-01-15T09:47:42;16.34;71.38
83808;SHT31;73824;40.292;17.998;2024-01-15T09:50:08;16.04;72.32
83808;SHT31;73824;40.292;17.998;2024-01-15T09:52:34;15.85;72.47
83808;SHT31;73824;40.292;17.998;2024-01-15T09:55:02;15.83;72.60
83808;SHT31;73824;40.292;17.998;2024-01-15T09:57:28;15.45;74.42
83808;SHT31;73824;40.292;17.998;2024-01-15T09:59:54;15.52;74.46
83808;SHT31;73824;40.292;17.998;2024-01-15T10:02:21;15.29;75.37
83808;SHT31;73824;40.292;17.998;2024-01-15T10:04:47;15.20;76.09
83808;SHT31;73824;40.292;17.998;2024-01-15T10:07:15;15.24;76.25
83808;SHT31;73824;40.292;17.998;2024-01-15T10:09:45;15.27;76.17
83808;SHT31;73824;40.292;17.998;2024-01-15T10:12:11;15.49;75.40
83808;SHT31;73824;40.292;17.998;2024-01-15T10:14:37;15.76;74.62
83808;SHT31;73824;40.292;17.998;2024-01-15T10:17:12;16.07;72.77
83808;SHT31;73824;40.292;17.998;2024-01-15T10:19:38;16.17;72.57
83808;SHT31;73824;40.292;17.998;2024-01-15T10:22:07;16.61;70.93
83808;SHT31;73824;40.292;17.998;2024-01-15T10:24:37;16.44;69.98
83808;SHT31;73824;40.292;17.998;2024-01-15T10:27:07;16.51;69.78
83808;SHT31;73824;40.292;17.998;2024-01-15T10:29:34;16.31;69.53
83808;SHT31;73824;40.292;17.998;2024-01-15T10:31:59;16.45;69.52
83808;SHT31;73824;40.292;17.998;2024-01-15T10:34:26;16.76;68.24
83808;SHT31;73824;40.292;17.998;2024-01-15T10:36:52;16.66;67.21
83808;SHT31;73824;40.292;17.998;2024-01-15T10:39:24;16.29;66.70
83808;SHT31;73824;40.292;17.998;2024-01-15T10:41:50;16.16;68.17
83808;SHT31;73824;40.292;17.998;2024-01-15T10:44:19;16.18;68.76
83808;SHT31;73824;40.292;17.998;2024-01-15T10:46:45;16.00;69.89
83808;SHT31;73824;40.292;17.998;2024-01-15T10:49:11;15.83;71.48
83808;SHT31;73824;40.292;17.998;2024-01-15T10:51:38;15.66;71.99
83808;SHT31;73824;40.292;17.998;2024-01-15T10:54:04;15.63;72.62
83808;SHT31;73824;40.292;17.998;2024-01-15T10:56:32;15.86;72.02
83808;SHT31;73824;40.292;17.998;2024-01-15T10:59:00;15.94;71.84
83808;SHT31;73824;40.292;17.998;2024-01-15T11:01:26;16.10;71.29
83808;SHT31;73824;40.292;17.998;2024-01-15T11:03:52;16.21;70.93
83808;SHT31;73824;40.292;17.998;2024-01-15T11:06:19;15.80;71.18
83808;SHT31;73824;40.292;17.998;2024-01-15T11:08:48;15.56;72.19
83808;SHT31;73824;40.292;17.998;2024-01-15T11:11:16;15.67;71.96
83808;SHT31;73824;40.292;17.998;2024-01-15T11:13:41;15.76;71.95
83808;SHT31;73824;40.292;17.998;2024-01-15T11:16:12;15.69;71.88
83808;SHT31;73824;40.292;17.998;2024-01-15T11:18:41;15.73;72.28
83808;SHT31;73824;40.292;17.998;2024-01-15T11:23:49;15.69;72.48
83808;SHT31;73824;40.292;17.998;2024-01-15T11:26:46;15.87;72.27
83808;SHT31;73824;40.292;17.998;2024-01-15T11:29:35;15.53;68.47
83808;SHT31;73824;40.292;17.998;2024-01-15T11:32:06;15.59;68.35
83808;SHT31;73824;40.292;17.998;2024-01-15T11:34:57;15.38;69.38
83808;SHT31;73824;40.292;17.998;2024-01-15T11:37:25;15.55;70.18
83808;SHT31;73824;40.292;17.998;2024-01-15T11:39:52;15.41;69.96
83808;SHT31;73824;40.292;17.998;2024-01-15T11:42:20;15.20;69.24
83808;SHT31;73824;40.292;17.998;2024-01-15T11:44:46;15.04;69.66
83808;SHT31;73824;40.292;17.998;2024-01-15T11:47:12;15.10;69.48
83808;SHT31;73824;40.292;17.998;2024-01-15T11:52:22;14.97;68.28
83808;SHT31;73824;40.292;17.998;2024-01-15T11:55:14;14.91;68.31
83808;SHT31;73824;40.292;17.998;2024-01-15T11:57:54;14.97;67.95
83808;SHT31;73824;40.292;17.998;2024-01-15T12:00:21;15.00;68.29
83808;SHT31;73824;40.292;17.998;2024-01-15T12:02:48;14.84;68.60
83808;SHT31;73824;40.292;17.998;2024-01-15T12:05:18;14.56;69.68
83808;SHT31;73824;40.292;17.998;2024-01-15T12:07:48;14.45;71.02
83808;SHT31;73824;40.292;17.998;2024-01-15T12:13:00;14.33;72.10
83808;SHT31;73824;40.292;17.998;2024-01-15T12:15:28;14.29;72.20
83808;SHT31;73824;40.292;17.998;2024-01-15T12:18:00;14.28;72.47
83808;SHT31;73824;40.292;17.998;2024-01-15T12:20:28;14.26;72.52
83808;SHT31;73824;40.292;17.998;2024-01-15T12:22:54;14.50;72.78
83808;SHT31;73824;40.292;17.998;2024-01-15T12:25:21;14.72;72.93
83808;SHT31;73824;40.292;17.998;2024-01-15T12:27:47;14.83;72.44
83808;SHT31;73824;40.292;17.998;2024-01-15T12:30:13;14.80;73.13
83808;SHT31;73824;40.292;17.998;2024-01-15T12:32:40;14.67;73.20
83808;SHT31;73824;40.292;17.998;2024-01-15T12:35:07;14.56;73.47
83808;SHT31;73824;40.292;17.998;2024-01-15T12:37:35;14.55;73.05
83808;SHT31;73824;40.292;17.998;2024-01-15T12:40:02;14.37;74.31
83808;SHT31;73824;40.292;17.998;2024-01-15T12:42:28;14.46;74.54
83808;SHT31;73824;40.292;17.998;2024-01-15T12:44:56;14.42;74.52
83808;SHT31;73824;40.292;17.998;2024-01-15T12:47:22;14.35;74.59
83808;SHT31;73824;40.292;17.998;2024-01-15T12:49:48;14.29;75.11
83808;SHT31;73824;40.292;17.998;2024-01-15T12:52:19;14.25;75.19
83808;SHT31;73824;40.292;17.998;2024-01-15T12:54:45;14.33;75.04
83808;SHT31;73824;40.292;17.998;2024-01-15T12:57:11;14.29;74.87
83808;SHT31;73824;40.292;17.998;2024-01-15T12:59:36;14.19;75.25
83808;SHT31;73824;40.292;17.998;2024-01-15T13:02:02;14.14;75.37
83808;SHT31;73824;40.292;17.998;2024-01-15T13:04:28;14.19;75.05
83808;SHT31;73824;40.292;17.998;2024-01-15T13:06:53;14.33;74.68
83808;SHT31;73824;40.292;17.998;2024-01-15T13:09:19;14.33;74.87
83808;SHT31;73824;40.292;17.998;2024-01-15T13:11:45;14.39;74.99
83808;SHT31;73824;40.292;17.998;2024-01-15T13:14:13;14.33;74.88
83808;SHT31;73824;40.292;17.998;2024-01-15T13:16:42;14.37;74.96
83808;SHT31;73824;40.292;17.998;2024-01-15T13:19:09;14.33;75.22
83808;SHT31;73824;40.292;17.998;2024-01-15T13:21:40;14.32;75.23
83808;SHT31;73824;40.292;17.998;2024-01-15T13:24:06;14.43;75.14
83808;SHT31;73824;40.292;17.998;2024-01-15T13:26:35;14.35;75.69
83808;SHT31;73824;40.292;17.998;2024-01-15T13:29:04;14.36;75.42
83808;SHT31;73824;40.292;17.998;2024-01-15T13:31:30;14.29;75.45
83808;SHT31;73824;40.292;17.998;2024-01-15T13:33:56;14.21;75.23
83808;SHT31;73824;40.292;17.998;2024-01-15T13:36:22;14.14;75.41
83808;SHT31;73824;40.292;17.998;2024-01-15T13:38:49;14.15;75.54
83808;SHT31;73824;40.292;17.998;2024-01-15T13:41:15;14.12;75.99
83808;SHT31;73824;40.292;17.998;2024-01-15T13:43:41;14.18;76.18
83808;SHT31;73824;40.292;17.998;2024-01-15T13:46:06;14.16;76.22
83808;SHT31;73824;40.292;17.998;2024-01-15T13:48:32;14.11;76.07
83808;SHT31;73824;40.292;17.998;2024-01-15T13:51:01;13.94;75.60
83808;SHT31;73824;40.292;17.998;2024-01-15T13:53:26;14.06;75.52
83808;SHT31;73824;40.292;17.998;2024-01-15T13:55:52;14.12;75.32
83808;SHT31;73824;40.292;17.998;2024-01-15T13:58:17;14.12;75.46
83808;SHT31;73824;40.292;17.998;2024-01-15T14:00:44;14.11;75.75
83808;SHT31;73824;40.292;17.998;2024-01-15T14:03:09;14.18;75.45
83808;SHT31;73824;40.292;17.998;2024-01-15T14:05:35;14.14;75.61
83808;SHT31;73824;40.292;17.998;2024-01-15T14:08:00;14.08;76.08
83808;SHT31;73824;40.292;17.998;2024-01-15T14:10:26;14.11;76.24
83808;SHT31;73824;40.292;17.998;2024-01-15T14:12:51;14.02;76.55
83808;SHT31;73824;40.292;17.998;2024-01-15T14:15:16;13.95;76.79
83808;SHT31;73824;40.292;17.998;2024-01-15T14:17:42;13.97;76.89
83808;SHT31;73824;40.292;17.998;2024-01-15T14:20:08;13.94;76.42
83808;SHT31;73824;40.292;17.998;2024-01-15T14:22:35;13.92;76.65
83808;SHT31;73824;40.292;17.998;2024-01-15T14:25:01;13.94;76.59
83808;SHT31;73824;40.292;17.998;2024-01-15T14:27:26;13.91;76.80
83808;SHT31;73824;40.292;17.998;2024-01-15T14:29:52;13.85;76.94
83808;SHT31;73824;40.292;17.998;2024-01-15T14:32:17;13.82;77.04
83808;SHT31;73824;40.292;17.998;2024-01-15T14:34:43;13.82;77.34
83808;SHT31;73824;40.292;17.998;2024-01-15T14:37:08;13.74;77.64
83808;SHT31;73824;40.292;17.998;2024-01-15T14:39:34;13.75;77.51
83808;SHT31;73824;40.292;17.998;2024-01-15T14:42:00;13.77;77.60
83808;SHT31;73824;40.292;17.998;2024-01-15T14:44:26;13.78;77.94
83808;SHT31;73824;40.292;17.998;2024-01-15T14:46:53;13.74;78.02
83808;SHT31;73824;40.292;17.998;2024-01-15T14:49:19;13.74;78.04
83808;SHT31;73824;40.292;17.998;2024-01-15T14:51:45;13.67;78.50
83808;SHT31;73824;40.292;17.998;2024-01-15T14:54:11;13.64;78.64
83808;SHT31;73824;40.292;17.998;2024-01-15T14:56:36;13.67;78.68
83808;SHT31;73824;40.292;17.998;2024-01-15T14:59:02;13.61;78.92
83808;SHT31;73824;40.292;17.998;2024-01-15T15:01:28;13.58;79.19
83808;SHT31;73824;40.292;17.998;2024-01-15T15:03:53;13.57;79.14
83808;SHT31;73824;40.292;17.998;2024-01-15T15:06:19;13.56;79.43
83808;SHT31;73824;40.292;17.998;2024-01-15T15:08:46;13.46;79.93
83808;SHT31;73824;40.292;17.998;2024-01-15T15:11:11;13.49;79.92
83808;SHT31;73824;40.292;17.998;2024-01-15T15:13:37;13.47;80.12
83808;SHT31;73824;40.292;17.998;2024-01-15T15:16:03;13.46;80.19
83808;SHT31;73824;40.292;17.998;2024-01-15T15:18:28;13.40;80.47
83808;SHT31;73824;40.292;17.998;2024-01-15T15:20:55;13.37;80.64
83808;SHT31;73824;40.292;17.998;2024-01-15T15:23:21;13.40;80.71